ENBR METAR and TAF | Updated Today

ENBR METAR

Bergen Airport Flesland

Observation time: 30 min. ago

ENBR 070920Z 14010KT 9999 VCSH FEW025 SCT029 BKN045 03/M06 Q1002 NOSIG RMK WIND 1200FT 12025G36KT

Need help? Read our tutorial on how to read METARs or read the parsed version below.

Bergen Airport Flesland (ENBR) METAR

  • Weather conditions on Tue, 07 Dec 2021 09:20:00 +0000 (30 min. ago):
  • Present conditions: In the vicinity, showers of
  • Clouds: A few at 762 meters; scattered at 884 meters; broken sky at 1372 meters
  • Visibility: Greater than 10 km
  • Wind: 140 degrees at 10 knots
  • Temperature: 3 celsius
  • Dew point: -6 celsius
  • Pressure: 1002 millibars
  • Remarks: WIND 1200FT 12025G36KT


Useful to know...

ENBR TAF

Bergen Airport Flesland

TAF ENBR 0706/0806 13010KT 9999 FEW040 BKN070 TEMPO 0706/0718 15015G25KT
Observation time:
Need help? Read our tutorial on how to read TAFs or read the parsed version below.

Parsed version of TAF for Bergen Airport Flesland (ENBR)

  • From 07 December at 06:00 UTC, to day 08 of the month at 06:00 UTC
  • Clouds: A few at 1219 meters; broken sky at 2134 meters
  • Visibility: Greater than 10 km
  • Wind: 130 degrees at 10
  • Expected to arise temporarily, from 07 December at 06:00 UTC, to day 07 of the month at 18:00 UTC
  • Wind: 150 degrees at 15